Time;durP1;ratioP1;P1;durP2;ratioP2;P2;SDS_P1;SDS_P2;PMS_P1;PMS_P2;Temp;Humidity;BMP_temperature;BMP_pressure;BME280_temperature;BME280_humidity;BME280_pressure;Samples;Min_cycle;Max_cycle;Signal;HPM_P1;HPM_P2
2024/01/15 00:01:32;;;;;;;5.28;1.10;;;;;;;0.49;100.00;100104.03;5069610;28;20053;-48
2024/01/15 00:04:00;;;;;;;4.57;1.15;;;;;;;0.49;100.00;100104.03;5070763;28;20102;-48
2024/01/15 00:06:32;;;;;;;6.63;1.27;;;;;;;0.43;100.00;100099.09;5073693;28;20048;-47
2024/01/15 00:09:01;;;;;;;6.13;1.20;;;;;;;0.42;100.00;100102.56;5073788;28;20126;-47
2024/01/15 00:11:29;;;;;;;4.65;1.25;;;;;;;0.42;100.00;100093.03;5073794;28;20475;-45
2024/01/15 00:13:57;;;;;;;7.53;1.38;;;;;;;0.36;100.00;100090.69;5073877;28;20040;-45
2024/01/15 00:16:25;;;;;;;4.35;1.10;;;;;;;0.32;100.00;100092.53;5074027;28;20118;-45
2024/01/15 00:18:53;;;;;;;3.50;0.98;;;;;;;0.33;100.00;100094.22;5073771;28;20040;-46
2024/01/15 00:21:22;;;;;;;3.72;0.90;;;;;;;0.27;100.00;100093.59;5073711;28;20117;-46
2024/01/15 00:23:52;;;;;;;3.15;0.95;;;;;;;0.27;100.00;100088.41;5073601;28;20056;-46
2024/01/15 00:26:21;;;;;;;4.65;0.90;;;;;;;0.29;100.00;100091.81;5073531;28;20079;-47
2024/01/15 00:28:49;;;;;;;6.28;1.13;;;;;;;0.21;100.00;100088.66;5073438;28;20052;-46
2024/01/15 00:31:17;;;;;;;9.18;1.20;;;;;;;0.21;100.00;100086.06;5073364;28;20053;-46
2024/01/15 00:33:45;;;;;;;4.43;0.90;;;;;;;0.23;100.00;100081.66;5073454;28;20638;-47
2024/01/15 00:36:14;;;;;;;8.13;1.35;;;;;;;0.17;100.00;100077.53;5073141;28;20504;-46
2024/01/15 00:38:43;;;;;;;5.93;1.30;;;;;;;0.16;100.00;100081.03;5073139;28;20052;-47
2024/01/15 00:41:13;;;;;;;5.47;1.00;;;;;;;0.05;100.00;100070.22;5073169;28;20067;-47
2024/01/15 00:43:41;;;;;;;4.93;0.85;;;;;;;0.09;100.00;100066.63;5069883;28;20470;-49
2024/01/15 00:46:09;;;;;;;3.08;0.80;;;;;;;0.02;100.00;100068.56;5069631;28;20044;-46
2024/01/15 00:48:38;;;;;;;7.28;1.05;;;;;;;-0.02;100.00;100069.56;5073003;28;20036;-47
2024/01/15 00:51:06;;;;;;;6.70;1.08;;;;;;;-0.07;100.00;100063.69;5071832;28;20071;-46
2024/01/15 00:53:35;;;;;;;10.85;1.85;;;;;;;-0.12;100.00;100063.88;5069822;28;20094;-45
2024/01/15 00:56:03;;;;;;;5.47;1.08;;;;;;;-0.13;100.00;100063.91;5070514;28;20049;-46
2024/01/15 00:58:32;;;;;;;7.40;1.13;;;;;;;-0.18;100.00;100052.00;5072636;28;20036;-48
2024/01/15 01:01:01;;;;;;;8.30;1.05;;;;;;;-0.21;100.00;100056.41;5072384;28;20422;-47
2024/01/15 01:03:29;;;;;;;8.52;1.52;;;;;;;-0.21;100.00;100052.06;5071992;28;20071;-50
2024/01/15 01:05:57;;;;;;;4.82;0.82;;;;;;;-0.21;100.00;100049.50;5072471;28;20495;-48
2024/01/15 01:08:26;;;;;;;5.18;1.00;;;;;;;-0.23;100.00;100045.25;5072392;28;20395;-46
2024/01/15 01:10:54;;;;;;;6.93;1.30;;;;;;;-0.26;100.00;100041.06;5072109;28;20052;-46
2024/01/15 01:13:22;;;;;;;4.97;0.98;;;;;;;-0.29;100.00;100038.56;5072647;28;20044;-48
2024/01/15 01:15:52;;;;;;;5.93;1.05;;;;;;;-0.29;100.00;100033.41;5072439;28;20049;-47
2024/01/15 01:18:20;;;;;;;7.38;1.13;;;;;;;-0.29;100.00;100032.56;5072240;28;20040;-47
2024/01/15 01:20:49;;;;;;;7.72;1.83;;;;;;;-0.36;100.00;100021.59;5072345;28;20056;-47
2024/01/15 01:23:17;;;;;;;4.68;1.15;;;;;;;-0.38;100.00;100024.22;5072436;28;20052;-47
2024/01/15 01:25:45;;;;;;;3.72;0.82;;;;;;;-0.38;100.00;100023.38;5072280;28;20502;-47
2024/01/15 01:28:13;;;;;;;4.38;1.30;;;;;;;-0.41;100.00;100016.56;5072162;28;20040;-47
2024/01/15 01:30:41;;;;;;;6.43;1.10;;;;;;;-0.39;100.00;100022.53;5072253;28;20067;-46
2024/01/15 01:33:11;;;;;;;6.10;1.27;;;;;;;-0.38;100.00;100028.56;5072224;28;20048;-46
2024/01/15 01:35:39;;;;;;;9.65;2.05;;;;;;;-0.40;100.00;100027.75;5072191;28;20048;-46
2024/01/15 01:38:07;;;;;;;9.48;1.90;;;;;;;-0.40;100.00;100027.75;5071921;28;20057;-51
2024/01/15 01:40:35;;;;;;;5.38;1.30;;;;;;;-0.46;100.00;100031.38;5068440;28;20439;-52
2024/01/15 01:43:04;;;;;;;6.38;1.20;;;;;;;-0.45;100.00;100039.97;5069769;28;20067;-50
2024/01/15 01:45:32;;;;;;;4.78;1.00;;;;;;;-0.49;100.00;100028.91;5070321;28;20056;-50
2024/01/15 01:48:01;;;;;;;10.50;1.33;;;;;;;-0.50;100.00;100037.53;5068436;28;20091;-50
2024/01/15 01:50:32;;;;;;;9.40;1.20;;;;;;;-0.51;100.00;100030.66;5071300;28;20052;-49
2024/01/15 01:53:03;;;;;;;7.35;1.17;;;;;;;-0.51;100.00;100038.44;5071911;28;20044;-50
2024/01/15 01:55:33;;;;;;;6.75;1.35;;;;;;;-0.55;100.00;100037.66;5071863;28;20126;-50
2024/01/15 01:58:03;;;;;;;10.52;1.45;;;;;;;-0.56;100.00;100041.16;5071678;28;20049;-51
2024/01/15 02:00:31;;;;;;;10.23;1.73;;;;;;;-0.60;100.00;100041.28;5070583;28;20049;-53
2024/01/15 02:03:00;;;;;;;5.85;1.17;;;;;;;-0.59;100.00;100045.56;5071715;28;20052;-49
2024/01/15 02:05:28;;;;;;;7.60;1.70;;;;;;;-0.58;100.00;100032.59;5071417;28;20462;-49
2024/01/15 02:07:58;;;;;;;9.00;1.52;;;;;;;-0.58;100.00;100035.19;5068741;28;20040;-53
2024/01/15 02:10:26;;;;;;;7.22;1.38;;;;;;;-0.60;100.00;100033.53;5068739;28;20131;-49
2024/01/15 02:12:54;;;;;;;8.38;2.33;;;;;;;-0.60;100.00;100031.81;5068137;28;20130;-52
2024/01/15 02:15:22;;;;;;;6.68;1.25;;;;;;;-0.63;100.00;100029.31;5069543;28;20052;-49
2024/01/15 02:18:01;;;;;;;8.35;2.00;;;;;;;-0.67;100.00;100032.91;5071681;28;20126;-47
2024/01/15 02:20:30;;;;;;;8.43;1.73;;;;;;;-0.72;100.00;100027.88;5071727;28;20487;-49
2024/01/15 02:23:13;;;;;;;8.38;1.58;;;;;;;-0.74;100.00;100024.50;5070276;28;20055;-51
2024/01/15 02:25:43;;;;;;;4.80;1.40;;;;;;;-0.72;100.00;100030.47;5071201;28;20048;-47
2024/01/15 02:28:12;;;;;;;10.70;1.88;;;;;;;-0.72;100.00;100030.47;5071390;28;20044;-46
2024/01/15 02:30:42;;;;;;;9.60;1.23;;;;;;;-0.73;100.00;100033.09;5071774;28;20047;-46
2024/01/15 02:33:11;;;;;;;5.95;1.20;;;;;;;-0.72;100.00;100027.06;5071505;28;20053;-47
2024/01/15 02:35:40;;;;;;;7.90;1.27;;;;;;;-0.76;100.00;100033.19;5071306;28;20052;-47
2024/01/15 02:38:09;;;;;;;13.40;2.85;;;;;;;-0.75;100.00;100040.03;5071484;28;20060;-47
2024/01/15 02:40:39;;;;;;;13.40;1.95;;;;;;;-0.78;100.00;100032.41;5071156;28;20052;-48
2024/01/15 02:43:07;;;;;;;6.38;1.20;;;;;;;-0.76;100.00;100028.88;5067523;28;20131;-46
2024/01/15 02:45:35;;;;;;;12.93;1.48;;;;;;;-0.75;100.00;100024.53;5068755;28;20049;-46
2024/01/15 02:48:04;;;;;;;8.10;1.23;;;;;;;-0.77;100.00;100031.50;5071328;28;20158;-46
2024/01/15 02:50:32;;;;;;;9.68;1.35;;;;;;;-0.80;100.00;100047.09;5071423;28;20051;-47
2024/01/15 02:53:00;;;;;;;5.57;1.13;;;;;;;-0.80;100.00;100070.34;5071337;28;20075;-46
2024/01/15 02:55:30;;;;;;;7.70;1.02;;;;;;;-0.71;100.00;100064.88;5070696;28;20074;-47
2024/01/15 02:58:00;;;;;;;7.25;1.30;;;;;;;-0.68;100.00;100055.31;5067522;28;20492;-46
2024/01/15 03:00:28;;;;;;;4.95;1.23;;;;;;;-0.68;100.00;100051.88;5067309;28;20060;-47
2024/01/15 03:02:57;;;;;;;8.02;2.10;;;;;;;-0.64;100.00;100039.69;5067140;28;20044;-46
2024/01/15 03:05:25;;;;;;;5.57;1.20;;;;;;;-0.64;100.00;100037.97;5068141;28;20110;-46
2024/01/15 03:07:54;;;;;;;9.15;1.00;;;;;;;-0.64;100.00;100042.28;5068208;28;20094;-47
2024/01/15 03:10:23;;;;;;;9.30;1.30;;;;;;;-0.63;100.00;100039.66;5068313;28;20045;-45
2024/01/15 03:12:51;;;;;;;7.82;1.20;;;;;;;-0.59;100.00;100035.25;5071340;28;20048;-46
2024/01/15 03:15:21;;;;;;;6.53;1.20;;;;;;;-0.58;100.00;100036.94;5071328;28;20761;-47
2024/01/15 03:17:49;;;;;;;8.65;1.40;;;;;;;-0.57;100.00;100031.72;5070825;28;20388;-46
2024/01/15 03:20:18;;;;;;;10.30;1.50;;;;;;;-0.53;100.00;100027.31;5067533;28;20684;-45
2024/01/15 03:22:46;;;;;;;7.53;1.40;;;;;;;-0.52;100.00;100032.44;5068816;28;20068;-45
2024/01/15 03:25:14;;;;;;;10.73;1.50;;;;;;;-0.55;100.00;100032.50;5071277;28;20052;-46
2024/01/15 03:27:42;;;;;;;7.90;1.30;;;;;;;-0.54;100.00;100031.63;5069242;28;20124;-48
2024/01/15 03:30:11;;;;;;;8.90;1.50;;;;;;;-0.55;100.00;100026.50;5067515;28;20863;-47
2024/01/15 03:32:41;;;;;;;9.02;1.27;;;;;;;-0.54;100.00;100031.63;5070062;28;20099;-47
2024/01/15 03:35:09;;;;;;;6.75;1.15;;;;;;;-0.58;100.00;100030.03;5072721;28;20480;-48
2024/01/15 03:37:38;;;;;;;7.70;1.25;;;;;;;-0.58;100.00;100019.69;5071560;28;20072;-50
2024/01/15 03:40:07;;;;;;;10.30;2.25;;;;;;;-0.63;100.00;100021.56;5071279;28;20040;-52
2024/01/15 03:42:35;;;;;;;7.68;1.10;;;;;;;-0.61;100.00;100021.53;5070464;28;20570;-53
2024/01/15 03:45:05;;;;;;;7.60;1.13;;;;;;;-0.62;100.00;100027.59;5069969;28;20535;-52
2024/01/15 03:47:33;;;;;;;10.35;1.67;;;;;;;-0.65;100.00;100018.22;5070766;28;20415;-49
2024/01/15 03:50:07;;;;;;;8.90;1.57;;;;;;;-0.70;100.00;100017.50;5073980;28;20055;-52
2024/01/15 03:52:37;;;;;;;10.60;1.15;;;;;;;-0.72;100.00;100014.97;5072978;28;20506;-50
2024/01/15 03:55:06;;;;;;;9.43;1.67;;;;;;;-0.75;100.00;100017.66;5070841;28;20157;-51
2024/01/15 03:57:34;;;;;;;5.07;1.00;;;;;;;-0.74;100.00;100014.16;5070518;28;20048;-50
2024/01/15 04:00:04;;;;;;;11.30;1.25;;;;;;;-0.76;100.00;100009.97;5070380;28;20071;-50
2024/01/15 04:02:32;;;;;;;8.13;1.42;;;;;;;-0.74;100.00;100011.56;5069869;28;20583;-54
2024/01/15 04:05:00;;;;;;;7.10;1.10;;;;;;;-0.72;100.00;100016.72;5070533;28;20060;-49
2024/01/15 04:07:30;;;;;;;7.57;1.75;;;;;;;-0.72;100.00;100017.56;5070490;28;20057;-50
2024/01/15 04:09:59;;;;;;;6.28;1.13;;;;;;;-0.70;100.00;100020.09;5072913;28;20044;-49
2024/01/15 04:12:27;;;;;;;10.38;1.42;;;;;;;-0.67;100.00;100012.22;5070389;28;20040;-50
2024/01/15 04:14:56;;;;;;;8.63;1.25;;;;;;;-0.65;100.00;100009.63;5070283;28;20175;-48
2024/01/15 04:17:24;;;;;;;14.23;1.70;;;;;;;-0.60;100.00;100003.41;5069881;28;20495;-49
2024/01/15 04:19:52;;;;;;;5.28;1.02;;;;;;;-0.58;100.00;100005.94;5070330;28;20083;-52
2024/01/15 04:22:20;;;;;;;5.70;0.93;;;;;;;-0.59;100.00;100002.50;5069401;28;20052;-52
2024/01/15 04:24:50;;;;;;;10.80;1.83;;;;;;;-0.54;100.00;100007.53;5069340;28;20053;-51
2024/01/15 04:27:18;;;;;;;7.90;1.58;;;;;;;-0.52;100.00;99997.97;5070163;28;20048;-50
2024/01/15 04:29:46;;;;;;;9.23;1.48;;;;;;;-0.52;100.00;99991.09;5070393;28;20094;-49
2024/01/15 04:32:14;;;;;;;8.73;1.30;;;;;;;-0.54;100.00;99987.69;5073503;28;20052;-49
2024/01/15 04:34:44;;;;;;;10.45;1.98;;;;;;;-0.50;100.00;99983.28;5073411;28;20049;-50
2024/01/15 04:37:14;;;;;;;9.20;1.50;;;;;;;-0.48;100.00;99984.06;5073462;28;20372;-50
2024/01/15 04:39:42;;;;;;;9.63;1.45;;;;;;;-0.48;100.00;99978.06;5073219;28;20087;-49
2024/01/15 04:42:12;;;;;;;10.15;1.30;;;;;;;-0.51;100.00;99979.00;5072163;28;20060;-49
2024/01/15 04:44:40;;;;;;;9.10;1.95;;;;;;;-0.51;100.00;99979.00;5067762;28;20049;-51
2024/01/15 04:47:08;;;;;;;8.30;1.10;;;;;;;-0.53;100.00;99973.06;5070436;28;20041;-53
2024/01/15 04:49:36;;;;;;;6.13;1.20;;;;;;;-0.54;100.00;99969.63;5073032;28;20745;-54
2024/01/15 04:52:05;;;;;;;8.35;1.20;;;;;;;-0.57;100.00;99972.31;5071153;28;20061;-50
2024/01/15 04:54:33;;;;;;;7.53;1.17;;;;;;;-0.56;100.00;99980.88;5070360;28;20048;-49
2024/01/15 04:57:02;;;;;;;8.23;1.42;;;;;;;-0.56;100.00;99966.25;5070864;28;20570;-52
2024/01/15 04:59:34;;;;;;;8.25;1.38;;;;;;;-0.58;100.00;99967.19;5070767;28;20124;-50
2024/01/15 05:02:03;;;;;;;8.27;2.17;;;;;;;-0.58;100.00;99962.88;5068828;28;20056;-51
2024/01/15 05:04:31;;;;;;;5.70;1.40;;;;;;;-0.60;100.00;99967.25;5072358;28;20056;-50
2024/01/15 05:06:59;;;;;;;6.43;1.25;;;;;;;-0.62;100.00;99953.53;5072858;28;20083;-49
2024/01/15 05:09:28;;;;;;;8.50;1.38;;;;;;;-0.60;100.00;99961.22;5072885;28;20199;-49
2024/01/15 05:12:00;;;;;;;7.85;1.30;;;;;;;-0.66;100.00;99951.94;5069929;28;20060;-48
2024/01/15 05:14:28;;;;;;;6.97;1.20;;;;;;;-0.66;100.00;99953.69;5069175;28;20041;-49
2024/01/15 05:16:57;;;;;;;6.75;1.35;;;;;;;-0.68;100.00;99948.59;5068764;28;20044;-50
2024/01/15 05:19:28;;;;;;;8.02;1.52;;;;;;;-0.69;100.00;99941.72;5072531;28;20123;-49
2024/01/15 05:21:57;;;;;;;6.88;1.33;;;;;;;-0.69;100.00;99941.72;5072446;28;20408;-49
2024/01/15 05:24:26;;;;;;;12.07;1.50;;;;;;;-0.70;100.00;99940.03;5072489;28;20135;-48
2024/01/15 05:26:54;;;;;;;10.30;1.95;;;;;;;-0.76;100.00;99938.50;5069525;28;20071;-48
2024/01/15 05:29:23;;;;;;;7.78;1.63;;;;;;;-0.77;100.00;99934.22;5069011;28;20041;-51
2024/01/15 05:31:51;;;;;;;9.50;1.83;;;;;;;-0.75;100.00;99931.56;5067380;28;20056;-51
2024/01/15 05:34:20;;;;;;;10.60;2.10;;;;;;;-0.74;100.00;99938.44;5068548;28;20044;-52
2024/01/15 05:36:49;;;;;;;10.98;1.63;;;;;;;-0.78;100.00;99932.53;5069342;28;20492;-50
2024/01/15 05:39:17;;;;;;;8.13;2.10;;;;;;;-0.76;100.00;99935.91;5070930;28;20048;-51
2024/01/15 05:41:50;;;;;;;13.27;2.85;;;;;;;-0.78;100.00;99932.53;5072375;28;20106;-51
2024/01/15 05:44:19;;;;;;;10.45;2.38;;;;;;;-0.77;100.00;99934.22;5068165;28;20057;-51
2024/01/15 05:46:47;;;;;;;8.70;2.22;;;;;;;-0.80;100.00;99936.91;5069020;28;20066;-50
2024/01/15 05:49:15;;;;;;;8.88;2.50;;;;;;;-0.80;100.00;99939.47;5070041;28;20057;-48
2024/01/15 05:51:45;;;;;;;12.60;2.92;;;;;;;-0.79;100.00;99937.72;5069302;28;20048;-51
2024/01/15 05:54:13;;;;;;;9.50;2.42;;;;;;;-0.75;100.00;99935.03;5071207;28;20040;-48
2024/01/15 05:56:44;;;;;;;5.82;1.95;;;;;;;-0.71;100.00;99933.16;5071742;28;20090;-50
2024/01/15 05:59:12;;;;;;;6.40;2.13;;;;;;;-0.72;100.00;99942.66;5068518;28;20412;-51
2024/01/15 06:01:43;;;;;;;6.22;2.10;;;;;;;-0.70;100.00;99942.59;5068545;28;20060;-50
2024/01/15 06:04:11;;;;;;;7.50;2.45;;;;;;;-0.72;100.00;99939.25;5067874;28;20086;-52
2024/01/15 06:06:39;;;;;;;4.25;1.88;;;;;;;-0.72;100.00;99931.50;5068745;28;20052;-50
2024/01/15 06:09:09;;;;;;;7.53;1.85;;;;;;;-0.70;100.00;99934.84;5068818;28;20752;-50
2024/01/15 06:11:37;;;;;;;9.00;2.13;;;;;;;-0.68;100.00;99938.25;5071720;28;20408;-53
2024/01/15 06:14:05;;;;;;;8.90;2.45;;;;;;;-0.63;100.00;99941.50;5070389;28;20055;-49
2024/01/15 06:16:33;;;;;;;6.22;2.45;;;;;;;-0.62;100.00;99945.78;5067829;28;20102;-49
2024/01/15 06:19:01;;;;;;;5.55;2.08;;;;;;;-0.58;100.00;99944.78;5068181;28;20094;-49
2024/01/15 06:21:30;;;;;;;3.97;1.90;;;;;;;-0.55;100.00;99941.25;5070611;28;20047;-50
2024/01/15 06:23:58;;;;;;;7.05;1.90;;;;;;;-0.55;100.00;99947.25;5068526;28;20056;-49
2024/01/15 06:26:28;;;;;;;5.28;1.92;;;;;;;-0.52;100.00;99943.72;5068065;28;20444;-50
2024/01/15 06:28:56;;;;;;;7.63;1.70;;;;;;;-0.50;100.00;99941.94;5069779;28;20056;-48
2024/01/15 06:31:24;;;;;;;6.90;1.60;;;;;;;-0.50;100.00;99941.94;5068840;28;21056;-53
2024/01/15 06:33:52;;;;;;;5.88;1.65;;;;;;;-0.48;100.00;99945.31;5067932;28;20525;-49
2024/01/15 06:36:21;;;;;;;4.47;1.40;;;;;;;-0.43;100.00;99942.59;5068666;28;20078;-52
2024/01/15 06:38:49;;;;;;;5.03;1.80;;;;;;;-0.40;100.00;99942.47;5068325;28;20067;-48
2024/01/15 06:41:17;;;;;;;8.18;2.05;;;;;;;-0.40;100.00;99939.91;5068044;28;20045;-49
2024/01/15 06:43:47;;;;;;;9.25;1.75;;;;;;;-0.37;100.00;99950.13;5067883;28;20127;-51
2024/01/15 06:46:21;;;;;;;5.20;2.00;;;;;;;-0.39;100.00;99950.16;5067832;28;20067;-49
2024/01/15 06:48:49;;;;;;;7.78;1.83;;;;;;;-0.41;100.00;99956.28;5068050;28;20084;-50
2024/01/15 06:51:18;;;;;;;7.05;2.50;;;;;;;-0.37;100.00;99950.13;5068297;28;20060;-52
2024/01/15 06:53:46;;;;;;;8.00;2.40;;;;;;;-0.39;100.00;99949.34;5068285;28;20071;-50
2024/01/15 06:56:14;;;;;;;6.60;2.45;;;;;;;-0.44;100.00;99954.66;5068060;28;20063;-49
2024/01/15 06:58:45;;;;;;;6.80;2.45;;;;;;;-0.43;100.00;99952.94;5067520;28;20537;-50
2024/01/15 07:01:14;;;;;;;7.65;2.40;;;;;;;-0.48;100.00;99940.16;5066646;28;20071;-50
2024/01/15 07:03:42;;;;;;;6.63;2.65;;;;;;;-0.45;100.00;99944.38;5067913;28;20052;-53
2024/01/15 07:06:11;;;;;;;7.63;3.00;;;;;;;-0.46;100.00;99942.66;5069232;28;20076;-51
2024/01/15 07:08:40;;;;;;;8.50;3.42;;;;;;;-0.46;100.00;99940.09;5071342;28;20040;-52
2024/01/15 07:11:08;;;;;;;7.43;3.30;;;;;;;-0.47;100.00;99941.84;5074979;28;20372;-52
2024/01/15 07:13:37;;;;;;;8.02;3.75;;;;;;;-0.45;100.00;99941.78;5074883;28;20468;-52
2024/01/15 07:16:07;;;;;;;8.18;4.03;;;;;;;-0.48;100.00;99937.56;5074752;28;20559;-51
2024/01/15 07:18:36;;;;;;;11.65;4.60;;;;;;;-0.45;100.00;99934.03;5073712;28;20090;-52
2024/01/15 07:21:07;;;;;;;10.27;4.40;;;;;;;-0.45;100.00;99928.88;5071405;28;20495;-52
2024/01/15 07:23:36;;;;;;;11.80;5.07;;;;;;;-0.47;100.00;99921.16;5071695;28;20048;-53
2024/01/15 07:26:05;;;;;;;10.13;5.57;;;;;;;-0.47;100.00;99923.75;5071331;28;20048;-52
2024/01/15 07:28:33;;;;;;;11.95;5.88;;;;;;;-0.46;100.00;99924.59;5074389;28;20055;-50
2024/01/15 07:31:02;;;;;;;9.40;5.95;;;;;;;-0.46;100.00;99929.75;5074537;28;20047;-49
2024/01/15 07:33:31;;;;;;;10.70;6.50;;;;;;;-0.48;100.00;99934.16;5072871;28;20051;-50
2024/01/15 07:36:02;;;;;;;10.27;6.63;;;;;;;-0.48;100.00;99934.97;5071318;28;20053;-48
2024/01/15 07:38:31;;;;;;;13.20;7.30;;;;;;;-0.45;100.00;99931.44;5074192;28;20412;-50
2024/01/15 07:40:59;;;;;;;11.65;7.57;;;;;;;-0.47;100.00;99928.91;5071000;28;20037;-51
2024/01/15 07:43:27;;;;;;;12.15;7.30;;;;;;;-0.49;100.00;99924.69;5071827;28;20052;-50
2024/01/15 07:45:56;;;;;;;12.35;7.38;;;;;;;-0.45;100.00;99934.91;5072125;28;20072;-49
2024/01/15 07:48:24;;;;;;;12.32;7.28;;;;;;;-0.43;100.00;99937.41;5070811;28;20048;-50
2024/01/15 07:50:55;;;;;;;12.13;7.32;;;;;;;-0.46;100.00;99937.50;5073405;28;20047;-49
2024/01/15 07:53:25;;;;;;;11.77;6.88;;;;;;;-0.44;100.00;99936.56;5074249;28;20110;-49
2024/01/15 07:55:53;;;;;;;10.13;6.55;;;;;;;-0.41;100.00;99944.22;5072721;28;20147;-49
2024/01/15 07:58:21;;;;;;;11.50;7.10;;;;;;;-0.46;100.00;99946.13;5072827;28;20492;-50
2024/01/15 08:00:49;;;;;;;10.95;7.07;;;;;;;-0.45;100.00;99955.56;5070546;28;20132;-49
2024/01/15 08:03:17;;;;;;;11.70;7.72;;;;;;;-0.47;100.00;99957.34;5070565;28;20396;-50
2024/01/15 08:05:46;;;;;;;10.98;6.80;;;;;;;-0.43;100.00;99958.09;5070568;28;20040;-49
2024/01/15 08:08:15;;;;;;;10.18;6.25;;;;;;;-0.43;100.00;99961.50;5073850;28;20143;-50
2024/01/15 08:10:44;;;;;;;10.27;5.65;;;;;;;-0.42;100.00;99949.44;5071098;28;20061;-50
2024/01/15 08:13:13;;;;;;;10.40;5.93;;;;;;;-0.43;100.00;99943.41;5070295;28;20044;-50
2024/01/15 08:15:41;;;;;;;9.65;5.28;;;;;;;-0.46;100.00;99945.25;5070102;28;20404;-49
2024/01/15 08:18:10;;;;;;;9.45;5.47;;;;;;;-0.46;100.00;99948.69;5071036;28;20052;-51
2024/01/15 08:20:41;;;;;;;7.32;4.40;;;;;;;-0.46;100.00;99946.13;5072081;28;20055;-53
2024/01/15 08:23:09;;;;;;;8.10;4.65;;;;;;;-0.45;100.00;99944.38;5073577;28;20063;-51
2024/01/15 08:25:37;;;;;;;8.25;4.32;;;;;;;-0.41;100.00;99941.66;5073755;28;20044;-51
2024/01/15 08:28:08;;;;;;;6.90;3.42;;;;;;;-0.40;100.00;99952.81;5071214;28;20080;-51
2024/01/15 08:30:36;;;;;;;5.85;3.30;;;;;;;-0.40;100.00;99945.88;5070400;28;20056;-53
2024/01/15 08:33:05;;;;;;;7.72;3.65;;;;;;;-0.39;100.00;99942.41;5069747;28;20044;-54
2024/01/15 08:35:48;;;;;;;6.93;3.53;;;;;;;-0.38;100.00;99951.03;5070711;28;20048;-49
2024/01/15 08:38:16;;;;;;;6.53;3.40;;;;;;;-0.32;100.00;99937.88;5071968;28;20056;-54
2024/01/15 08:40:44;;;;;;;6.80;3.15;;;;;;;-0.29;100.00;99934.34;5073143;28;20048;-54
2024/01/15 08:43:13;;;;;;;7.72;3.15;;;;;;;-0.35;100.00;99940.59;5072997;28;20049;-49
2024/01/15 08:45:42;;;;;;;7.60;3.53;;;;;;;-0.37;100.00;99937.19;5069641;28;20056;-50
2024/01/15 08:48:10;;;;;;;6.25;3.40;;;;;;;-0.38;100.00;99936.38;5069717;28;20039;-51
2024/01/15 08:50:38;;;;;;;6.13;2.95;;;;;;;-0.33;100.00;99932.78;5069946;28;20920;-46
2024/01/15 08:53:06;;;;;;;7.53;3.25;;;;;;;-0.36;100.00;99938.91;5071849;28;20410;-47
2024/01/15 08:55:34;;;;;;;8.25;3.10;;;;;;;-0.37;100.00;99940.66;5073211;28;20048;-52
2024/01/15 08:58:03;;;;;;;5.45;2.90;;;;;;;-0.37;100.00;99952.69;5073159;28;20040;-52
2024/01/15 09:00:33;;;;;;;8.73;2.70;;;;;;;-0.37;100.00;99957.88;5072891;28;20132;-53
2024/01/15 09:03:02;;;;;;;6.72;3.00;;;;;;;-0.38;100.00;99951.88;5070775;28;20067;-50
2024/01/15 09:05:32;;;;;;;6.05;2.80;;;;;;;-0.36;100.00;99956.97;5069629;28;20056;-51
2024/01/15 09:08:00;;;;;;;8.52;3.00;;;;;;;-0.39;100.00;99970.00;5069963;28;20663;-54
2024/01/15 09:10:28;;;;;;;7.75;4.07;;;;;;;-0.36;100.00;99975.06;5069594;28;20151;-52
2024/01/15 09:13:00;;;;;;;6.80;2.90;;;;;;;-0.37;100.00;99974.22;5069276;28;20039;-53
2024/01/15 09:15:28;;;;;;;7.35;3.80;;;;;;;-0.39;100.00;99959.69;5069214;28;20128;-52
2024/01/15 09:17:58;;;;;;;7.70;3.15;;;;;;;-0.40;100.00;99952.81;5071208;28;20037;-48
2024/01/15 09:20:30;;;;;;;8.00;3.10;;;;;;;-0.42;100.00;99962.38;5072423;28;20542;-48
2024/01/15 09:22:58;;;;;;;6.22;2.90;;;;;;;-0.40;100.00;99955.41;5072381;28;20044;-48
2024/01/15 09:25:26;;;;;;;5.93;2.63;;;;;;;-0.36;100.00;99954.41;5072376;28;20045;-48
2024/01/15 09:27:54;;;;;;;6.28;2.90;;;;;;;-0.32;100.00;99966.31;5072322;28;20048;-48
2024/01/15 09:30:23;;;;;;;11.10;3.70;;;;;;;-0.29;100.00;99961.03;5072265;28;20605;-48
2024/01/15 09:32:51;;;;;;;7.63;3.00;;;;;;;-0.28;100.00;99969.66;5071939;28;20044;-52
2024/01/15 09:35:20;;;;;;;7.38;3.47;;;;;;;-0.28;100.00;99960.16;5072173;28;20098;-51
2024/01/15 09:37:51;;;;;;;;;;;;;;;-0.26;100.00;99960.94;5072495;28;20076;-47
2024/01/15 09:40:22;;;;;;;8.68;2.95;;;;;;;-0.23;100.00;99949.63;5072011;28;20350;-47
2024/01/15 09:42:51;;;;;;;7.13;3.03;;;;;;;-0.11;100.00;99962.16;5071988;28;20106;-46
2024/01/15 09:45:20;;;;;;;6.65;2.85;;;;;;;-0.07;100.00;99947.38;5072047;28;20487;-47
2024/01/15 09:47:48;;;;;;;8.00;3.03;;;;;;;-0.04;100.00;99945.53;5071986;28;20044;-47
2024/01/15 09:50:17;;;;;;;8.40;3.05;;;;;;;0.01;100.00;99949.69;5072062;28;20052;-46
2024/01/15 09:52:47;;;;;;;8.32;3.22;;;;;;;0.04;100.00;99945.25;5071922;28;20062;-46
2024/01/15 09:55:17;;;;;;;6.55;2.30;;;;;;;0.10;100.00;99951.97;5070613;28;20593;-48
2024/01/15 09:57:45;;;;;;;7.78;2.17;;;;;;;0.17;100.00;99948.25;5068695;28;20131;-47
2024/01/15 10:00:18;;;;;;;8.57;1.95;;;;;;;0.14;100.00;99946.59;5070974;28;20406;-46
2024/01/15 10:02:46;;;;;;;7.28;1.92;;;;;;;0.10;100.00;99947.63;5071727;28;20040;-48
2024/01/15 10:05:15;;;;;;;5.97;1.70;;;;;;;0.07;100.00;99947.72;5070784;28;20064;-46
2024/01/15 10:07:43;;;;;;;3.92;1.45;;;;;;;0.07;100.00;99952.03;5069069;28;20098;-50
2024/01/15 10:10:15;;;;;;;5.32;1.65;;;;;;;0.06;100.00;99963.31;5070731;28;20058;-47
2024/01/15 10:12:44;;;;;;;3.50;1.30;;;;;;;0.05;100.00;99964.19;5071997;28;20041;-46
2024/01/15 10:15:13;;;;;;;4.00;1.40;;;;;;;0.11;100.00;99966.53;5068320;28;20044;-47
2024/01/15 10:17:41;;;;;;;3.85;1.30;;;;;;;0.15;100.00;99957.78;5068008;28;20040;-47
2024/01/15 10:20:11;;;;;;;5.60;1.48;;;;;;;0.20;100.00;99962.81;5069647;28;20131;-46
2024/01/15 10:22:42;;;;;;;2.90;1.02;;;;;;;0.29;100.00;99952.13;5071735;28;20036;-47
2024/01/15 10:25:11;;;;;;;3.67;1.00;;;;;;;0.31;100.00;99965.84;5071655;28;20044;-46
2024/01/15 10:27:42;;;;;;;5.65;1.10;;;;;;;0.37;100.00;99957.00;5068470;28;20444;-46
2024/01/15 10:30:13;;;;;;;3.33;1.10;;;;;;;0.54;100.00;99958.97;5069002;28;20488;-45
2024/01/15 10:32:41;;;;;;;9.05;1.50;;;;;;;0.63;100.00;99956.03;5071502;28;20045;-51
2024/01/15 10:35:10;;;;;;;4.38;1.40;;;;;;;0.58;100.00;99953.63;5071264;28;20583;-45
2024/01/15 10:37:38;;;;;;;6.25;1.50;;;;;;;0.55;100.00;99953.75;5068846;28;20115;-50
2024/01/15 10:40:08;;;;;;;4.25;1.20;;;;;;;0.46;100.00;99954.06;5068613;28;20515;-48
2024/01/15 10:42:36;;;;;;;5.38;1.20;;;;;;;0.45;100.00;99957.56;5071623;28;20121;-48
2024/01/15 10:45:08;;;;;;;5.68;1.33;;;;;;;0.34;100.00;99960.53;5074055;28;20052;-50
2024/01/15 10:47:37;;;;;;;6.57;1.52;;;;;;;0.34;100.00;99957.94;5075731;28;20557;-51
2024/01/15 10:50:07;;;;;;;8.00;1.90;;;;;;;0.32;100.00;99952.00;5075320;28;20415;-53
2024/01/15 10:52:36;;;;;;;6.13;2.00;;;;;;;0.31;100.00;99956.34;5074690;28;20094;-47
2024/01/15 10:55:06;;;;;;;5.40;2.42;;;;;;;0.31;100.00;99948.59;5071960;28;20056;-45
2024/01/15 10:57:41;;;;;;;8.18;2.67;;;;;;;0.35;100.00;99946.72;5073574;28;20090;-46
2024/01/15 11:00:14;;;;;;;6.90;3.03;;;;;;;0.41;100.00;99946.50;5075235;28;20499;-47
2024/01/15 11:02:44;;;;;;;7.43;3.55;;;;;;;0.46;100.00;99952.34;5071690;28;20048;-50
2024/01/15 11:05:13;;;;;;;7.40;3.80;;;;;;;0.49;100.00;99962.56;5070429;28;20076;-46
2024/01/15 11:07:42;;;;;;;9.00;4.18;;;;;;;0.49;100.00;99949.63;5075178;28;20047;-47
2024/01/15 11:10:42;;;;;;;9.40;4.13;;;;;;;0.44;100.00;99955.91;5075189;28;20383;-48
2024/01/15 11:13:11;;;;;;;8.07;3.60;;;;;;;0.39;100.00;99950.88;5073767;28;20052;-48
2024/01/15 11:16:01;;;;;;;8.48;3.30;;;;;;;0.38;100.00;99949.19;5075090;28;20055;-48
2024/01/15 11:18:31;;;;;;;8.75;3.38;;;;;;;0.34;100.00;99952.78;5074929;28;20056;-45
2024/01/15 11:21:21;;;;;;;7.65;3.13;;;;;;;0.28;100.00;99945.25;5074750;28;20110;-47
2024/01/15 11:23:51;;;;;;;7.95;3.22;;;;;;;0.24;100.00;99948.84;5074620;28;20048;-46
2024/01/15 11:26:38;;;;;;;6.35;2.80;;;;;;;0.27;100.00;99953.91;5074763;28;20086;-46
2024/01/15 11:29:08;;;;;;;7.70;2.78;;;;;;;0.32;100.00;99959.78;5074730;28;20041;-47
2024/01/15 11:32:01;;;;;;;10.48;3.00;;;;;;;0.36;100.00;99965.69;5074510;28;20049;-48